sensor_id;sensor_type;location;lat;lon;timestamp;pressure;altitude;pressure_sealevel;temperature;humidity
60307;BME280;46155;52.364;6.580;2023-05-12T03:00:39;101343.19;;;11.71;100.00
60307;BME280;46155;52.364;6.580;2023-05-12T03:03:04;101342.25;;;11.70;100.00
60307;BME280;46155;52.364;6.580;2023-05-12T03:05:30;101337.19;;;11.74;100.00
60307;BME280;46155;52.364;6.580;2023-05-12T03:07:55;101335.59;;;11.76;100.00
60307;BME280;46155;52.364;6.580;2023-05-12T03:10:21;101332.94;;;11.76;100.00
60307;BME280;46155;52.364;6.580;2023-05-12T03:12:46;101336.47;;;11.76;100.00
60307;BME280;46155;52.364;6.580;2023-05-12T03:15:11;101334.88;;;11.78;100.00
60307;BME280;46155;52.364;6.580;2023-05-12T03:17:37;101332.34;;;11.80;100.00
60307;BME280;46155;52.364;6.580;2023-05-12T03:20:03;101330.31;;;11.76;100.00
60307;BME280;46155;52.364;6.580;2023-05-12T03:22:28;101335.38;;;11.73;100.00
60307;BME280;46155;52.364;6.580;2023-05-12T03:24:54;101332.84;;;11.74;100.00
60307;BME280;46155;52.364;6.580;2023-05-12T03:27:19;101336.00;;;11.68;100.00
60307;BME280;46155;52.364;6.580;2023-05-12T03:29:45;101333.19;;;11.65;100.00
60307;BME280;46155;52.364;6.580;2023-05-12T03:32:10;101324.25;;;11.63;100.00
60307;BME280;46155;52.364;6.580;2023-05-12T03:34:36;101331.34;;;11.64;100.00
60307;BME280;46155;52.364;6.580;2023-05-12T03:37:01;101328.81;;;11.66;100.00
60307;BME280;46155;52.364;6.580;2023-05-12T03:39:26;101331.53;;;11.67;100.00
60307;BME280;46155;52.364;6.580;2023-05-12T03:41:51;101333.66;;;11.73;100.00
60307;BME280;46155;52.364;6.580;2023-05-12T03:44:17;101347.50;;;11.70;100.00
60307;BME280;46155;52.364;6.580;2023-05-12T03:46:42;101342.06;;;11.67;100.00
60307;BME280;46155;52.364;6.580;2023-05-12T03:49:08;101345.72;;;11.69;100.00
60307;BME280;46155;52.364;6.580;2023-05-12T03:51:34;101347.94;;;11.77;100.00
60307;BME280;46155;52.364;6.580;2023-05-12T03:53:59;101351.56;;;11.79;100.00
60307;BME280;46155;52.364;6.580;2023-05-12T03:56:24;101353.56;;;11.83;100.00
60307;BME280;46155;52.364;6.580;2023-05-12T03:58:49;101356.81;;;11.79;100.00
60307;BME280;46155;52.364;6.580;2023-05-12T04:01:15;101348.72;;;11.76;100.00
60307;BME280;46155;52.364;6.580;2023-05-12T04:03:41;101357.00;;;11.82;100.00
60307;BME280;46155;52.364;6.580;2023-05-12T04:06:06;101361.28;;;11.80;100.00
60307;BME280;46155;52.364;6.580;2023-05-12T04:08:32;101359.63;;;11.82;100.00
60307;BME280;46155;52.364;6.580;2023-05-12T04:10:58;101359.75;;;11.83;100.00
60307;BME280;46155;52.364;6.580;2023-05-12T04:13:25;101358.31;;;11.88;100.00
60307;BME280;46155;52.364;6.580;2023-05-12T04:15:54;101361.06;;;11.90;100.00
60307;BME280;46155;52.364;6.580;2023-05-12T04:18:19;101366.81;;;11.98;100.00
60307;BME280;46155;52.364;6.580;2023-05-12T04:20:45;101364.84;;;11.94;100.00
60307;BME280;46155;52.364;6.580;2023-05-12T04:23:10;101366.94;;;11.99;100.00
60307;BME280;46155;52.364;6.580;2023-05-12T04:25:38;101367.16;;;12.02;100.00
60307;BME280;46155;52.364;6.580;2023-05-12T04:28:04;101368.94;;;12.03;100.00
60307;BME280;46155;52.364;6.580;2023-05-12T04:30:30;101374.72;;;11.98;100.00
60307;BME280;46155;52.364;6.580;2023-05-12T04:32:55;101370.19;;;11.95;100.00
60307;BME280;46155;52.364;6.580;2023-05-12T04:35:21;101375.19;;;11.92;100.00
60307;BME280;46155;52.364;6.580;2023-05-12T04:37:46;101376.25;;;11.94;100.00
60307;BME280;46155;52.364;6.580;2023-05-12T04:40:11;101380.47;;;11.92;100.00
60307;BME280;46155;52.364;6.580;2023-05-12T04:42:37;101378.00;;;11.94;100.00
60307;BME280;46155;52.364;6.580;2023-05-12T04:45:02;101383.44;;;11.97;100.00
60307;BME280;46155;52.364;6.580;2023-05-12T04:47:28;101386.19;;;11.98;100.00
60307;BME280;46155;52.364;6.580;2023-05-12T04:49:53;101395.91;;;11.99;100.00
60307;BME280;46155;52.364;6.580;2023-05-12T04:52:18;101390.00;;;12.03;100.00
60307;BME280;46155;52.364;6.580;2023-05-12T04:54:45;101391.63;;;12.01;100.00
60307;BME280;46155;52.364;6.580;2023-05-12T04:57:10;101407.09;;;12.10;100.00
60307;BME280;46155;52.364;6.580;2023-05-12T04:59:36;101413.06;;;12.08;100.00
60307;BME280;46155;52.364;6.580;2023-05-12T05:02:01;101416.91;;;12.13;100.00
60307;BME280;46155;52.364;6.580;2023-05-12T05:04:27;101425.41;;;12.09;100.00
60307;BME280;46155;52.364;6.580;2023-05-12T05:06:52;101421.28;;;12.12;100.00
60307;BME280;46155;52.364;6.580;2023-05-12T05:09:19;101424.00;;;12.14;100.00
60307;BME280;46155;52.364;6.580;2023-05-12T05:11:45;101430.88;;;12.12;100.00
60307;BME280;46155;52.364;6.580;2023-05-12T05:14:11;101436.97;;;12.11;100.00
60307;BME280;46155;52.364;6.580;2023-05-12T05:16:36;101437.28;;;12.15;100.00
60307;BME280;46155;52.364;6.580;2023-05-12T05:19:02;101434.91;;;12.20;100.00
60307;BME280;46155;52.364;6.580;2023-05-12T05:21:27;101443.44;;;12.16;100.00
60307;BME280;46155;52.364;6.580;2023-05-12T05:23:52;101448.00;;;12.18;100.00
60307;BME280;46155;52.364;6.580;2023-05-12T05:26:18;101439.56;;;12.24;100.00
60307;BME280;46155;52.364;6.580;2023-05-12T05:28:43;101438.78;;;12.25;100.00
60307;BME280;46155;52.364;6.580;2023-05-12T05:31:17;101447.03;;;12.31;100.00
60307;BME280;46155;52.364;6.580;2023-05-12T05:33:43;101453.53;;;12.36;100.00
60307;BME280;46155;52.364;6.580;2023-05-12T05:36:09;101448.47;;;12.39;100.00
60307;BME280;46155;52.364;6.580;2023-05-12T05:38:34;101458.09;;;12.39;100.00
60307;BME280;46155;52.364;6.580;2023-05-12T05:41:00;101457.75;;;12.48;100.00
60307;BME280;46155;52.364;6.580;2023-05-12T05:43:25;101454.50;;;12.52;100.00
60307;BME280;46155;52.364;6.580;2023-05-12T05:45:50;101456.31;;;12.53;100.00
60307;BME280;46155;52.364;6.580;2023-05-12T05:48:16;101452.53;;;12.63;100.00
60307;BME280;46155;52.364;6.580;2023-05-12T05:50:43;101464.09;;;12.65;100.00
60307;BME280;46155;52.364;6.580;2023-05-12T05:53:08;101468.66;;;12.67;100.00
60307;BME280;46155;52.364;6.580;2023-05-12T05:55:34;101454.06;;;12.59;100.00
60307;BME280;46155;52.364;6.580;2023-05-12T05:57:59;101479.19;;;12.67;100.00
60307;BME280;46155;52.364;6.580;2023-05-12T06:00:24;101477.53;;;12.69;100.00
60307;BME280;46155;52.364;6.580;2023-05-12T06:02:49;101484.03;;;12.74;100.00
60307;BME280;46155;52.364;6.580;2023-05-12T06:05:15;101484.03;;;12.74;100.00
60307;BME280;46155;52.364;6.580;2023-05-12T06:07:40;101474.56;;;12.78;100.00
60307;BME280;46155;52.364;6.580;2023-05-12T06:10:06;101477.28;;;12.80;100.00
60307;BME280;46155;52.364;6.580;2023-05-12T06:12:32;101482.56;;;12.80;100.00
60307;BME280;46155;52.364;6.580;2023-05-12T06:14:57;101482.47;;;12.78;100.00
60307;BME280;46155;52.364;6.580;2023-05-12T06:17:22;101485.38;;;12.83;100.00
60307;BME280;46155;52.364;6.580;2023-05-12T06:19:47;101482.22;;;12.88;100.00
60307;BME280;46155;52.364;6.580;2023-05-12T06:22:14;101487.72;;;12.91;100.00
60307;BME280;46155;52.364;6.580;2023-05-12T06:24:40;101494.25;;;12.98;100.00
60307;BME280;46155;52.364;6.580;2023-05-12T06:27:06;101492.63;;;13.00;100.00
60307;BME280;46155;52.364;6.580;2023-05-12T06:29:31;101487.72;;;13.06;100.00
60307;BME280;46155;52.364;6.580;2023-05-12T06:31:57;101492.38;;;13.11;100.00
60307;BME280;46155;52.364;6.580;2023-05-12T06:34:22;101494.31;;;13.13;100.00
60307;BME280;46155;52.364;6.580;2023-05-12T06:36:47;101485.84;;;13.19;100.00
60307;BME280;46155;52.364;6.580;2023-05-12T06:39:13;101488.84;;;13.25;100.00
60307;BME280;46155;52.364;6.580;2023-05-12T06:41:38;101501.81;;;13.35;100.00
60307;BME280;46155;52.364;6.580;2023-05-12T06:44:03;101501.47;;;13.44;100.00
60307;BME280;46155;52.364;6.580;2023-05-12T06:46:30;101507.75;;;13.46;100.00
60307;BME280;46155;52.364;6.580;2023-05-12T06:48:56;101502.81;;;13.52;100.00
60307;BME280;46155;52.364;6.580;2023-05-12T06:51:21;101509.13;;;13.54;100.00
60307;BME280;46155;52.364;6.580;2023-05-12T06:53:47;101516.13;;;13.54;100.00
60307;BME280;46155;52.364;6.580;2023-05-12T06:56:12;101511.94;;;13.57;100.00
60307;BME280;46155;52.364;6.580;2023-05-12T06:58:42;101513.69;;;13.57;100.00
60307;BME280;46155;52.364;6.580;2023-05-12T07:01:07;101518.31;;;13.61;100.00
60307;BME280;46155;52.364;6.580;2023-05-12T07:03:33;101521.94;;;13.63;100.00
60307;BME280;46155;52.364;6.580;2023-05-12T07:05:58;101525.88;;;13.70;100.00
60307;BME280;46155;52.364;6.580;2023-05-12T07:08:24;101527.34;;;13.80;100.00
60307;BME280;46155;52.364;6.580;2023-05-12T07:10:49;101521.88;;;13.76;100.00
60307;BME280;46155;52.364;6.580;2023-05-12T07:13:15;101527.34;;;13.80;100.00
60307;BME280;46155;52.364;6.580;2023-05-12T07:15:40;101522.22;;;13.83;100.00
60307;BME280;46155;52.364;6.580;2023-05-12T07:18:05;101526.78;;;13.85;100.00
60307;BME280;46155;52.364;6.580;2023-05-12T07:20:31;101522.75;;;13.92;100.00
60307;BME280;46155;52.364;6.580;2023-05-12T07:22:56;101536.63;;;13.88;100.00
60307;BME280;46155;52.364;6.580;2023-05-12T07:25:22;101535.94;;;13.92;100.00
60307;BME280;46155;52.364;6.580;2023-05-12T07:27:47;101529.84;;;13.93;100.00
60307;BME280;46155;52.364;6.580;2023-05-12T07:30:13;101545.53;;;13.90;100.00
60307;BME280;46155;52.364;6.580;2023-05-12T07:32:38;101545.53;;;13.90;100.00
60307;BME280;46155;52.364;6.580;2023-05-12T07:35:04;101541.78;;;13.86;100.00
60307;BME280;46155;52.364;6.580;2023-05-12T07:37:29;101543.34;;;13.83;100.00
60307;BME280;46155;52.364;6.580;2023-05-12T07:39:55;101540.53;;;13.80;100.00
60307;BME280;46155;52.364;6.580;2023-05-12T07:42:20;101543.34;;;13.83;100.00
60307;BME280;46155;52.364;6.580;2023-05-12T07:44:46;101550.44;;;13.84;100.00
60307;BME280;46155;52.364;6.580;2023-05-12T07:47:12;101547.19;;;13.88;100.00
60307;BME280;46155;52.364;6.580;2023-05-12T07:49:37;101555.53;;;13.95;100.00
60307;BME280;46155;52.364;6.580;2023-05-12T07:52:03;101547.88;;;14.00;100.00
60307;BME280;46155;52.364;6.580;2023-05-12T07:54:28;101548.72;;;13.99;100.00
60307;BME280;46155;52.364;6.580;2023-05-12T07:56:53;101559.16;;;14.12;100.00
60307;BME280;46155;52.364;6.580;2023-05-12T07:59:19;101565.00;;;14.22;100.00
60307;BME280;46155;52.364;6.580;2023-05-12T08:01:44;101561.50;;;14.23;100.00
60307;BME280;46155;52.364;6.580;2023-05-12T08:04:09;101565.25;;;14.26;100.00
60307;BME280;46155;52.364;6.580;2023-05-12T08:06:35;101558.97;;;14.24;100.00
60307;BME280;46155;52.364;6.580;2023-05-12T08:09:00;101566.63;;;14.35;100.00
60307;BME280;46155;52.364;6.580;2023-05-12T08:11:26;101558.94;;;14.39;100.00
60307;BME280;46155;52.364;6.580;2023-05-12T08:13:51;101570.03;;;14.49;100.00
60307;BME280;46155;52.364;6.580;2023-05-12T08:16:17;101575.69;;;14.55;100.00
60307;BME280;46155;52.364;6.580;2023-05-12T08:18:42;101575.50;;;14.52;100.00
60307;BME280;46155;52.364;6.580;2023-05-12T08:21:08;101575.41;;;14.65;100.00
60307;BME280;46155;52.364;6.580;2023-05-12T08:23:33;101579.81;;;14.81;100.00
60307;BME280;46155;52.364;6.580;2023-05-12T08:26:02;101572.25;;;14.87;100.00
60307;BME280;46155;52.364;6.580;2023-05-12T08:28:27;101582.81;;;14.87;100.00
60307;BME280;46155;52.364;6.580;2023-05-12T08:30:52;101581.72;;;14.84;100.00
60307;BME280;46155;52.364;6.580;2023-05-12T08:33:18;101586.28;;;14.86;100.00
60307;BME280;46155;52.364;6.580;2023-05-12T08:35:43;101591.06;;;14.93;100.00
60307;BME280;46155;52.364;6.580;2023-05-12T08:38:09;101578.25;;;15.01;100.00
60307;BME280;46155;52.364;6.580;2023-05-12T08:40:40;101579.88;;;15.14;100.00
60307;BME280;46155;52.364;6.580;2023-05-12T08:45:45;101591.38;;;15.31;100.00
60307;BME280;46155;52.364;6.580;2023-05-12T08:48:12;101589.63;;;15.31;100.00
60307;BME280;46155;52.364;6.580;2023-05-12T08:50:40;101589.03;;;15.37;100.00
60307;BME280;46155;52.364;6.580;2023-05-12T08:53:09;101586.47;;;15.39;100.00
60307;BME280;46155;52.364;6.580;2023-05-12T08:55:37;101593.91;;;15.46;100.00
60307;BME280;46155;52.364;6.580;2023-05-12T08:58:03;101590.44;;;15.47;100.00
60307;BME280;46155;52.364;6.580;2023-05-12T09:00:30;101598.31;;;15.45;100.00
60307;BME280;46155;52.364;6.580;2023-05-12T09:02:58;101602.88;;;15.48;100.00
60307;BME280;46155;52.364;6.580;2023-05-12T09:05:26;101600.59;;;15.56;100.00
60307;BME280;46155;52.364;6.580;2023-05-12T09:07:53;101603.41;;;15.59;100.00
60307;BME280;46155;52.364;6.580;2023-05-12T09:10:21;101602.59;;;15.60;100.00
60307;BME280;46155;52.364;6.580;2023-05-12T09:12:51;101599.88;;;15.58;100.00
60307;BME280;46155;52.364;6.580;2023-05-12T09:15:24;101603.91;;;15.68;100.00
60307;BME280;46155;52.364;6.580;2023-05-12T09:17:50;101601.59;;;15.74;100.00
60307;BME280;46155;52.364;6.580;2023-05-12T09:20:16;101599.00;;;15.76;100.00
60307;BME280;46155;52.364;6.580;2023-05-12T09:22:41;101608.22;;;15.82;100.00
60307;BME280;46155;52.364;6.580;2023-05-12T09:25:17;101604.69;;;16.00;100.00
60307;BME280;46155;52.364;6.580;2023-05-12T09:27:48;101607.84;;;16.09;100.00
60307;BME280;46155;52.364;6.580;2023-05-12T09:30:14;101611.38;;;16.10;100.00
60307;BME280;46155;52.364;6.580;2023-05-12T09:32:40;101617.09;;;16.17;100.00
60307;BME280;46155;52.364;6.580;2023-05-12T09:35:07;101610.34;;;16.24;100.00
60307;BME280;46155;52.364;6.580;2023-05-12T09:37:35;101610.81;;;16.33;100.00
60307;BME280;46155;52.364;6.580;2023-05-12T09:40:03;101606.13;;;16.46;100.00
60307;BME280;46155;52.364;6.580;2023-05-12T09:42:30;101603.03;;;16.55;100.00
60307;BME280;46155;52.364;6.580;2023-05-12T09:45:06;101615.66;;;16.42;100.00
60307;BME280;46155;52.364;6.580;2023-05-12T09:47:35;101609.28;;;16.57;100.00
60307;BME280;46155;52.364;6.580;2023-05-12T09:50:02;101608.06;;;16.86;100.00
60307;BME280;46155;52.364;6.580;2023-05-12T09:52:29;101611.50;;;17.01;100.00
60307;BME280;46155;52.364;6.580;2023-05-12T09:55:03;101606.25;;;17.03;100.00
60307;BME280;46155;52.364;6.580;2023-05-12T09:57:28;101602.91;;;17.07;100.00
60307;BME280;46155;52.364;6.580;2023-05-12T09:59:54;101605.16;;;17.17;100.00
60307;BME280;46155;52.364;6.580;2023-05-12T10:02:20;101612.59;;;17.07;97.51
60307;BME280;46155;52.364;6.580;2023-05-12T10:04:50;101613.72;;;17.12;100.00
60307;BME280;46155;52.364;6.580;2023-05-12T10:07:17;101608.34;;;17.10;100.00
60307;BME280;46155;52.364;6.580;2023-05-12T10:09:47;101616.38;;;17.12;100.00
60307;BME280;46155;52.364;6.580;2023-05-12T10:12:13;101617.00;;;17.06;100.00
60307;BME280;46155;52.364;6.580;2023-05-12T10:14:40;101610.88;;;17.07;100.00
60307;BME280;46155;52.364;6.580;2023-05-12T10:17:07;101617.03;;;17.26;100.00
60307;BME280;46155;52.364;6.580;2023-05-12T10:19:34;101616.66;;;17.18;96.84
60307;BME280;46155;52.364;6.580;2023-05-12T10:22:00;101623.38;;;17.29;96.55
60307;BME280;46155;52.364;6.580;2023-05-12T10:24:26;101620.25;;;17.38;98.76
60307;BME280;46155;52.364;6.580;2023-05-12T10:26:54;101618.44;;;17.37;99.01
60307;BME280;46155;52.364;6.580;2023-05-12T10:29:24;101621.34;;;17.24;97.27
60307;BME280;46155;52.364;6.580;2023-05-12T10:31:57;101623.88;;;17.20;99.35
60307;BME280;46155;52.364;6.580;2023-05-12T10:34:22;101624.66;;;17.37;97.73
60307;BME280;46155;52.364;6.580;2023-05-12T10:36:48;101621.91;;;17.36;94.94
60307;BME280;46155;52.364;6.580;2023-05-12T10:39:15;101617.75;;;17.41;99.46
60307;BME280;46155;52.364;6.580;2023-05-12T10:41:40;101617.06;;;17.45;96.58
60307;BME280;46155;52.364;6.580;2023-05-12T10:44:06;101623.25;;;17.46;96.88
60307;BME280;46155;52.364;6.580;2023-05-12T10:46:33;101617.75;;;17.61;98.47
60307;BME280;46155;52.364;6.580;2023-05-12T10:51:47;101615.22;;;17.83;95.79
60307;BME280;46155;52.364;6.580;2023-05-12T10:54:23;101617.63;;;17.79;91.28
60307;BME280;46155;52.364;6.580;2023-05-12T10:56:48;101613.44;;;17.84;91.05
60307;BME280;46155;52.364;6.580;2023-05-12T10:59:16;101621.38;;;18.02;91.64
60307;BME280;46155;52.364;6.580;2023-05-12T11:02:05;101612.22;;;18.16;92.53
60307;BME280;46155;52.364;6.580;2023-05-12T11:04:47;101618.78;;;18.24;85.25
60307;BME280;46155;52.364;6.580;2023-05-12T11:07:14;101618.50;;;18.39;86.71
60307;BME280;46155;52.364;6.580;2023-05-12T11:09:41;101616.03;;;18.44;88.15
60307;BME280;46155;52.364;6.580;2023-05-12T11:12:08;101614.06;;;18.61;86.25
60307;BME280;46155;52.364;6.580;2023-05-12T11:14:36;101610.56;;;18.62;85.75
60307;BME280;46155;52.364;6.580;2023-05-12T11:17:02;101610.16;;;18.74;86.47
60307;BME280;46155;52.364;6.580;2023-05-12T11:19:28;101615.63;;;18.77;85.23
60307;BME280;46155;52.364;6.580;2023-05-12T11:21:54;101613.59;;;18.92;85.87
60307;BME280;46155;52.364;6.580;2023-05-12T11:24:23;101601.13;;;18.91;83.21
60307;BME280;46155;52.364;6.580;2023-05-12T11:26:49;101613.59;;;18.92;83.45
60307;BME280;46155;52.364;6.580;2023-05-12T11:29:18;101619.34;;;18.82;80.99
60307;BME280;46155;52.364;6.580;2023-05-12T11:31:47;101611.91;;;18.73;82.00
60307;BME280;46155;52.364;6.580;2023-05-12T11:34:13;101620.56;;;18.68;80.39
60307;BME280;46155;52.364;6.580;2023-05-12T11:36:40;101611.63;;;18.66;82.30
60307;BME280;46155;52.364;6.580;2023-05-12T11:39:14;101618.88;;;18.70;82.96
60307;BME280;46155;52.364;6.580;2023-05-12T11:41:40;101611.72;;;18.69;82.85
60307;BME280;46155;52.364;6.580;2023-05-12T11:46:41;101613.25;;;18.85;81.96
60307;BME280;46155;52.364;6.580;2023-05-12T11:49:09;101617.94;;;18.90;82.25
60307;BME280;46155;52.364;6.580;2023-05-12T11:51:41;101609.22;;;18.95;81.98
60307;BME280;46155;52.364;6.580;2023-05-12T11:54:07;101606.28;;;19.09;83.15
60307;BME280;46155;52.364;6.580;2023-05-12T11:56:33;101603.28;;;19.24;83.67
60307;BME280;46155;52.364;6.580;2023-05-12T11:58:58;101617.09;;;19.14;78.89
60307;BME280;46155;52.364;6.580;2023-05-12T12:01:24;101616.25;;;18.92;82.15
60307;BME280;46155;52.364;6.580;2023-05-12T12:03:52;101613.00;;;19.00;78.42
60307;BME280;46155;52.364;6.580;2023-05-12T12:06:18;101611.88;;;19.17;82.10
60307;BME280;46155;52.364;6.580;2023-05-12T12:08:54;101609.81;;;19.33;82.25
60307;BME280;46155;52.364;6.580;2023-05-12T12:11:21;101617.44;;;19.48;77.62
60307;BME280;46155;52.364;6.580;2023-05-12T12:13:50;101615.56;;;19.43;78.61
60307;BME280;46155;52.364;6.580;2023-05-12T12:16:23;101621.03;;;19.48;77.26
60307;BME280;46155;52.364;6.580;2023-05-12T12:18:49;101620.53;;;19.58;79.71
60307;BME280;46155;52.364;6.580;2023-05-12T12:21:14;101619.25;;;19.73;81.11
60307;BME280;46155;52.364;6.580;2023-05-12T12:23:40;101622.56;;;19.90;79.31
60307;BME280;46155;52.364;6.580;2023-05-12T12:26:05;101623.75;;;19.74;75.94
60307;BME280;46155;52.364;6.580;2023-05-12T12:28:31;101622.13;;;19.77;76.14
60307;BME280;46155;52.364;6.580;2023-05-12T12:30:56;101628.47;;;19.81;74.83
60307;BME280;46155;52.364;6.580;2023-05-12T12:33:22;101620.34;;;19.78;75.80
60307;BME280;46155;52.364;6.580;2023-05-12T12:35:48;101625.31;;;19.69;75.19
60307;BME280;46155;52.364;6.580;2023-05-12T12:38:13;101620.16;;;19.72;75.46
60307;BME280;46155;52.364;6.580;2023-05-12T12:40:38;101621.25;;;19.78;72.34
60307;BME280;46155;52.364;6.580;2023-05-12T12:43:04;101625.69;;;19.78;70.58
60307;BME280;46155;52.364;6.580;2023-05-12T12:45:29;101629.25;;;19.78;69.97
60307;BME280;46155;52.364;6.580;2023-05-12T12:47:54;101619.97;;;19.91;70.31
60307;BME280;46155;52.364;6.580;2023-05-12T12:50:20;101617.25;;;19.90;67.59
60307;BME280;46155;52.364;6.580;2023-05-12T12:52:46;101615.88;;;19.77;68.88
60307;BME280;46155;52.364;6.580;2023-05-12T12:55:13;101620.06;;;19.94;68.22
60307;BME280;46155;52.364;6.580;2023-05-12T12:57:38;101617.34;;;19.93;64.07
60307;BME280;46155;52.364;6.580;2023-05-12T13:00:04;101607.81;;;20.00;69.59
60307;BME280;46155;52.364;6.580;2023-05-12T13:02:30;101617.28;;;20.17;68.27
60307;BME280;46155;52.364;6.580;2023-05-12T13:04:55;101612.09;;;20.20;68.80
60307;BME280;46155;52.364;6.580;2023-05-12T13:07:21;101614.22;;;20.30;62.95
60307;BME280;46155;52.364;6.580;2023-05-12T13:09:46;101605.66;;;20.41;62.36
60307;BME280;46155;52.364;6.580;2023-05-12T13:12:11;101610.34;;;20.48;64.38
60307;BME280;46155;52.364;6.580;2023-05-12T13:14:37;101598.22;;;20.58;59.62
60307;BME280;46155;52.364;6.580;2023-05-12T13:17:02;101605.50;;;20.63;60.82
60307;BME280;46155;52.364;6.580;2023-05-12T13:19:28;101603.09;;;20.70;61.91
60307;BME280;46155;52.364;6.580;2023-05-12T13:21:53;101605.19;;;20.80;59.20
60307;BME280;46155;52.364;6.580;2023-05-12T13:24:18;101598.41;;;20.91;59.10
60307;BME280;46155;52.364;6.580;2023-05-12T13:26:44;101611.41;;;20.80;59.47
60307;BME280;46155;52.364;6.580;2023-05-12T13:29:09;101594.75;;;20.60;55.82
60307;BME280;46155;52.364;6.580;2023-05-12T13:31:35;101597.31;;;20.57;57.98
60307;BME280;46155;52.364;6.580;2023-05-12T13:34:02;101604.06;;;20.46;56.41
60307;BME280;46155;52.364;6.580;2023-05-12T13:36:27;101606.22;;;20.30;55.51
60307;BME280;46155;52.364;6.580;2023-05-12T13:38:53;101604.84;;;20.16;57.10
60307;BME280;46155;52.364;6.580;2023-05-12T13:41:19;101610.00;;;20.11;60.56
60307;BME280;46155;52.364;6.580;2023-05-12T13:43:44;101602.81;;;20.09;61.58
60307;BME280;46155;52.364;6.580;2023-05-12T13:46:10;101597.16;;;20.00;60.84
60307;BME280;46155;52.364;6.580;2023-05-12T13:48:35;101600.66;;;19.99;60.64
60307;BME280;46155;52.364;6.580;2023-05-12T13:51:00;101604.91;;;19.92;61.38
60307;BME280;46155;52.364;6.580;2023-05-12T13:53:26;101600.41;;;19.91;60.31
60307;BME280;46155;52.364;6.580;2023-05-12T13:55:51;101599.56;;;19.92;60.70
60307;BME280;46155;52.364;6.580;2023-05-12T13:58:16;101604.75;;;19.89;58.88
60307;BME280;46155;52.364;6.580;2023-05-12T14:00:42;101596.84;;;19.90;59.53
60307;BME280;46155;52.364;6.580;2023-05-12T14:03:07;101595.56;;;20.05;60.13
60307;BME280;46155;52.364;6.580;2023-05-12T14:05:32;101592.47;;;20.18;59.76
60307;BME280;46155;52.364;6.580;2023-05-12T14:07:58;101587.66;;;20.34;59.91
60307;BME280;46155;52.364;6.580;2023-05-12T14:10:23;101588.25;;;20.52;60.96
60307;BME280;46155;52.364;6.580;2023-05-12T14:12:48;101600.66;;;20.77;55.12
60307;BME280;46155;52.364;6.580;2023-05-12T14:15:14;101595.06;;;20.98;55.17
60307;BME280;46155;52.364;6.580;2023-05-12T14:17:39;101594.50;;;20.80;49.96
60307;BME280;46155;52.364;6.580;2023-05-12T14:20:05;101594.75;;;20.60;50.31
60307;BME280;46155;52.364;6.580;2023-05-12T14:22:31;101594.19;;;20.43;52.89
60307;BME280;46155;52.364;6.580;2023-05-12T14:24:57;101605.66;;;20.41;52.23
60307;BME280;46155;52.364;6.580;2023-05-12T14:27:22;101604.06;;;20.46;52.81
60307;BME280;46155;52.364;6.580;2023-05-12T14:29:48;101589.66;;;20.41;53.24
60307;BME280;46155;52.364;6.580;2023-05-12T14:32:13;101605.38;;;20.32;53.35
60307;BME280;46155;52.364;6.580;2023-05-12T14:34:38;101594.66;;;20.30;54.09
60307;BME280;46155;52.364;6.580;2023-05-12T14:37:04;101600.69;;;20.24;54.98
60307;BME280;46155;52.364;6.580;2023-05-12T14:39:30;101597.53;;;20.10;54.94
60307;BME280;46155;52.364;6.580;2023-05-12T14:41:55;101592.97;;;20.06;53.53
60307;BME280;46155;52.364;6.580;2023-05-12T14:44:21;101594.63;;;20.04;54.84
60307;BME280;46155;52.364;6.580;2023-05-12T14:46:46;101595.47;;;20.02;54.99
60307;BME280;46155;52.364;6.580;2023-05-12T14:49:11;101603.38;;;20.00;55.46
60307;BME280;46155;52.364;6.580;2023-05-12T14:51:38;101602.53;;;20.01;54.63
60307;BME280;46155;52.364;6.580;2023-05-12T14:54:04;101596.47;;;20.05;55.30
60307;BME280;46155;52.364;6.580;2023-05-12T14:56:29;101595.97;;;20.17;56.43
60307;BME280;46155;52.364;6.580;2023-05-12T14:58:55;101596.72;;;20.39;55.72
60307;BME280;46155;52.364;6.580;2023-05-12T15:01:20;101591.06;;;20.57;53.91
60307;BME280;46155;52.364;6.580;2023-05-12T15:03:45;101587.81;;;20.66;51.67
60307;BME280;46155;52.364;6.580;2023-05-12T15:06:11;101602.94;;;20.67;52.34
60307;BME280;46155;52.364;6.580;2023-05-12T15:08:37;101606.47;;;20.66;53.66
60307;BME280;46155;52.364;6.580;2023-05-12T15:11:02;101605.69;;;20.68;52.83
60307;BME280;46155;52.364;6.580;2023-05-12T15:13:28;101612.78;;;20.68;49.83
60307;BME280;46155;52.364;6.580;2023-05-12T15:15:53;101629.22;;;20.54;43.39
60307;BME280;46155;52.364;6.580;2023-05-12T15:18:19;101611.41;;;20.53;41.19
60307;BME280;46155;52.364;6.580;2023-05-12T15:20:44;101614.06;;;20.53;42.59
60307;BME280;46155;52.364;6.580;2023-05-12T15:23:10;101617.63;;;20.54;42.53
60307;BME280;46155;52.364;6.580;2023-05-12T15:25:39;101620.41;;;20.57;44.71
60307;BME280;46155;52.364;6.580;2023-05-12T15:28:04;101612.47;;;20.58;43.40
60307;BME280;46155;52.364;6.580;2023-05-12T15:30:30;101614.25;;;20.59;45.77
60307;BME280;46155;52.364;6.580;2023-05-12T15:32:55;101616.03;;;20.59;45.08
60307;BME280;46155;52.364;6.580;2023-05-12T15:35:20;101621.47;;;20.62;46.70
60307;BME280;46155;52.364;6.580;2023-05-12T15:37:46;101614.44;;;20.64;47.34
60307;BME280;46155;52.364;6.580;2023-05-12T15:40:11;101620.47;;;20.58;47.19
60307;BME280;46155;52.364;6.580;2023-05-12T15:42:37;101619.69;;;20.62;49.28
60307;BME280;46155;52.364;6.580;2023-05-12T15:45:03;101625.03;;;20.62;47.43
60307;BME280;46155;52.364;6.580;2023-05-12T15:47:28;101624.00;;;20.57;48.59